Flight Track Log - Related Links

Times and Time Zones

All times are in EDT time to prevent confusion due to time zone crossing. See the SWA34 flight status page for this flight to view local times or setup timezone preferences in your user account.

Time Position Orientation Groundspeed Altitude Reporting Facility
EDT Latitude Longitude Course Direction KTS MPH feet Rate Location/Type
Mon 08:11:32 PM 38.8200 -90.4111 347° North 224 258 4,200  Level Kansas City Center
Mon 08:12:34 PM 38.8769 -90.3881 17° North 228 262 7,400 2,585 Climbing Kansas City Center
Mon 08:13:35 PM 38.8806 -90.2992 87° East 259 298 9,500 1,854 Climbing Kansas City Center
Mon 08:14:37 PM 38.8678 -90.1914 99° East 294 338 11,200 1,742 Climbing Kansas City Center
Mon 08:15:39 PM 38.8547 -90.0636 97° East 348 400 13,100 2,032 Climbing Kansas City Center
Mon 08:16:41 PM 38.8389 -89.9292 99° East 372 428 15,400 2,146 Climbing Kansas City Center
Mon 08:17:42 PM 38.8239 -89.7911 98° East 386 444 17,500 2,000 Climbing Kansas City Center
Mon 08:18:44 PM 38.8050 -89.6303 99° East 392 451 19,500 1,790 Climbing Kansas City Center
Mon 08:19:46 PM 38.7953 -89.4833 95° East 411 473 21,200 1,659 Climbing Kansas City Center
Mon 08:20:47 PM 38.8153 -89.3256 81° East 416 479 22,900 1,362 Climbing Kansas City Center
Mon 08:22:00 PM 38.8333 -89.1486 90° East  Level FlightAware Approximate
Mon 08:22:51 PM 38.8525 -89.0256 90° East 433 498 25,400  Level Kansas City Center
Mon 08:23:52 PM 38.8706 -88.8781 81° East 437 503 26,800 1,366 Climbing Kansas City Center
Mon 08:24:54 PM 38.8917 -88.7269 80° East 435 501 28,200 1,403 Climbing Kansas City Center
Mon 08:25:56 PM 38.9117 -88.5769 80° East 430 495 29,700 1,161 Climbing Kansas City Center
Mon 08:26:58 PM 38.9408 -88.4364 75° East 421 484 30,600 1,018 Climbing Kansas City Center
Mon 08:27:48 PM 38.9878 -88.3017 66° East 418 481 31,600 1,125 Climbing Indianapolis Center
Mon 08:28:50 PM 39.0253 -88.1597 71° East 418 481 32,700 778 Climbing Indianapolis Center
Mon 08:30:53 PM 39.1006 -87.8806 71° East 411 473 34,000 227 Climbing Indianapolis Center
Mon 08:31:55 PM 39.1394 -87.7414 70° East 411 473 33,400 -488 Descending Indianapolis Center
Mon 08:32:56 PM 39.1797 -87.5906 71° East 401 461 33,000 -585 Descending Indianapolis Center
Mon 08:35:00 PM 39.2599 -87.3506 67° East  Level FlightAware Approximate
Mon 08:36:01 PM 39.3097 -87.1839 67° East 420 483 31,000  Level Indianapolis Center
Mon 08:38:05 PM 39.3981 -86.9144 67° East 408 470 31,000  Level Indianapolis Center
Mon 08:39:06 PM 39.4414 -86.7811 67° East 404 465 31,000  Level Indianapolis Center
Mon 08:41:09 PM 39.5375 -86.4831 67° East 413 475 31,000 -357 Level Indianapolis Center
Mon 08:42:11 PM 39.5811 -86.3469 67° East 414 476 29,900 -968 Descending Indianapolis Center
Mon 08:43:13 PM 39.6244 -86.2106 68° East 418 481 29,000 -439 Descending Indianapolis Center
Mon 08:44:14 PM 39.6764 -86.0483 67° East 416 479 29,000  Level Indianapolis Center
Mon 08:45:16 PM 39.7194 -85.9117 68° East 414 476 29,000  Level Indianapolis Center
Mon 08:46:17 PM 39.7611 -85.7753 68° East 411 473 29,000  Level Indianapolis Center
Mon 08:47:19 PM 39.8064 -85.6397 66° East 410 472 29,000  Level Indianapolis Center
Mon 08:48:20 PM 39.8478 -85.5025 69° East 411 473 29,000  Level Indianapolis Center
Mon 08:49:22 PM 39.8906 -85.3642 68° East 414 476 29,000  Level Indianapolis Center
Mon 08:51:25 PM 39.9819 -85.0611 68° East 413 475 29,000  Level Indianapolis Center
Mon 08:52:27 PM 40.0258 -84.9242 67° East 412 474 29,000 -439 Level Indianapolis Center
Mon 08:53:28 PM 40.0631 -84.7919 70° East 416 479 28,100 -913 Descending Indianapolis Center
Mon 08:55:00 PM 40.1131 -84.6043 69° East  Level FlightAware Approximate
Mon 08:55:31 PM 40.1522 -84.4992 69° East 430 495 26,200  Level Indianapolis Center
Mon 08:57:34 PM 40.2322 -84.1753 72° East 426 490 23,700 -1,565 Descending Indianapolis Center
Mon 08:58:35 PM 40.2667 -84.0300 73° East 414 476 21,400 -2,488 Descending Indianapolis Center
Mon 08:59:37 PM 40.3008 -83.8883 72° East 404 465 18,600 -2,679 Descending Indianapolis Center
Mon 09:00:27 PM 40.3264 -83.7761 73° East 387 445 16,400 -2,649 Descending Indianapolis Center
Mon 09:01:28 PM 40.3569 -83.6431 73° East 378 435 13,700 -2,055 Descending Indianapolis Center
Mon 09:02:53 PM 40.3967 -83.4728 73° East 336 387 11,400 -1,433 Descending Indianapolis Center
Mon 09:03:42 PM 40.3906 -83.3869 95° East 300 345 10,500 -1,135 Descending Indianapolis Center
Mon 09:04:44 PM 40.3689 -83.2911 106° East 274 315 9,300 -1,512 Descending Indianapolis Center
Mon 09:05:45 PM 40.3508 -83.1992 104° East 261 300 7,400 -1,721 Descending Indianapolis Center
Mon 09:06:46 PM 40.3161 -83.1194 120° Southeast 266 306 5,800 -1,463 Descending Indianapolis Center
Mon 09:07:48 PM 40.2433 -83.1189 180° South 258 297 4,400 -927 Descending Indianapolis Center
Mon 09:08:49 PM 40.1722 -83.1186 180° South 256 295 3,900 -683 Descending Indianapolis Center
Mon 09:09:51 PM 40.1086 -83.1206 181° South 241 277 3,000 -541 Descending Indianapolis Center
Mon 09:10:40 PM 40.0581 -83.1072 169° South 207 238 2,900 -49 Descending Indianapolis Center
Mon 09:11:53 PM 40.0175 -83.0494 132° Southeast 206 237 2,900 -313 Level Indianapolis Center
Mon 09:12:35 PM 40.0000 -83.0078 119° Southeast 155 178 2,300 -816 Descending Indianapolis Center
Mon 09:13:36 PM 39.9992 -82.9614 91° East 111 128 1,500 -744 Descending Indianapolis Center
Mon 09:14:36 PM 39.9961 -82.9122 95° East 135 155 800 -439 Descending Indianapolis Center
Mon 09:14:58 PM 39.9958 -82.9067 94° East 134 154 900 273 Climbing Indianapolis Center

Login

Don't have an account? Register now (free) for customized features, flight alerts, and more!